Results for the 06/06/2018 Summer Series 1 have been published. Results as of 19:26 on June 13, 2018

RACE 4 - A Fleet - 06/06/2018 at 18:00:00

Start: A Fleet, Finishes: Finish time, Time: 18:21, Distance: 7.41, Course: 15
RankFleetBoatClassSailNoHelmNameRatingStartFinishElapsedCorrected
1 A FEARLESS Melges 32 184 Lucas/Durlach 24 18:21 19:35:09 1:14:09 1:23:58
2 A KINETIC J 111 73 Stein 39 18:21 19:38:51 1:17:51 1:25:55
3 A FOGDOG ID 35 35029 Guhl 36 18:21 19:38:50 1:17:50 1:26:20
4 A GUILLOTINE Melges 32 174 Mossman 24 18:21 19:38:02 1:17:02 1:27:14
5 A WARHORSE ID 35 35006 Brown 36 18:21 19:40:03 1:19:03 1:27:41
6 A MOOSE DOWN J 120 CF 521201 Moore 48 18:21 19:42:23 1:21:23 1:28:28
7 A PHOTON ID 35 35022 Hibdon 36     DNC  
7 A DAUNTLESS Beneteau 47.7 28477B Terwilliger 27     DNC  

RACE 4 - B Fleet - 06/06/2018 at 18:00:00

Start: B Fleet, Finishes: Finish time, Time: 18:33, Distance: 5.5, Course: 9
RankFleetBoatClassSailNoHelmNameRatingStartFinishElapsedCorrected
1 B MATADORA J 24 5259 Rogge 171 18:33 19:43:42 1:10:42 1:03:44
2 B CHICORA J 24 2349 Hill 171 18:33 19:44:02 1:11:02 1:04:02
3 B ORANGE CRUSH J 24 828 Benjamin 171 18:33 19:44:24 1:11:24 1:04:22
4 B LEVEL PELICAN J 24 2260 McDonald 171 18:33 19:45:43 1:12:43 1:05:33
5 B JO MAMMA J 24 3266 Palazzo 171 18:33 19:45:58 1:12:58 1:05:47
6 B DIRTY DOG J 24 5357 Moffly 171 18:33 19:46:24 1:13:24 1:06:10
7 B PUFF DADDY J 24 4398 Lent 171 18:33 19:48:20 1:15:20 1:07:55
8 B HAVOC Kirby 25 100 O'Connor 180 18:33 19:55:59 1:22:59 1:13:53
9 B WHISKEY & KNIVES Sparkman & Stephens 30 30001 Hemmerling 153     DNC  

RACE 4 - C Fleet - 06/06/2018 at 18:00:00

Start: C Fleet, Finishes: Finish time, Time: 18:40, Distance: 5.5, Course: 9
RankFleetBoatClassSailNoHelmNameRatingStartFinishElapsedCorrected
1 C LAS BRISAS J 30 32956 Swatta 160 18:40 19:53:47 1:13:47 1:07:33
2 C INDIGO Pearson Vanguard 184 Dodds 228 18:40 20:02:16 1:22:16 1:08:44
3 C CELADON Moorings 510 51704 Lesniak 96 18:40 19:48:21 1:08:21 1:08:46

RACE 4 - D Fleet - 06/06/2018 at 18:00:00

Start: D Fleet, Finishes: Finish time, Time: 18:46, Distance: 4.58, Course: 4
RankFleetBoatClassSailNoHelmNameRatingStartFinishElapsedCorrected
1 D KAMIKAZE 5 Morgan 30/2 569 Simons 201 18:46 19:41:50 0:55:50 0:48:19
2 D DIRECTION Morgan 30/2 7 Springer 201 18:46 19:42:24 0:56:24 0:48:49
3 D MOON RIVER Kenner Privateer 26 116 Moore 276 18:46 19:48:27 1:02:27 0:49:09
4 D ELLA W BRAY Marshall 22 22 Kenan 285 18:46 20:01:03 1:15:03 0:58:25
5 D ANON Hunter 31 H310 Carns 206 18:46 19:54:06 1:08:06 0:58:33
6 D TROUBLE Hunter 240 H240 VanWagenen 277 18:46 20:11:59 1:25:59 1:07:35
7 D MENTAL HEELING Catalina 30 5399 Keeney 221     DNC  

RACE 4 - N Fleet - 06/06/2018 at 18:00:00

Start: N Fleet, Finishes: Finish time, Time: 18:46, Distance: 4.58, Course: 4
RankFleetBoatClassSailNoHelmNameRatingStartFinishElapsedCorrected
1 N SCEPTRE J 130 CF SD 28693 Musor 45 18:46 19:32:57 0:46:57 0:51:17
2 N EMOCEAN J 120 Al 37120 Hanckel 62 18:46 19:34:39 0:48:39 0:51:40
3 N WILLAWAY Tartan 37-2 C 73196 Cross 160 18:46 19:42:45 0:56:45 0:51:57
4 N PEREGRINE Beneteau 456 60451 Vienneau 122 18:46 19:40:15 0:54:15 0:52:28
5 N FATE Beneteau 49 15 Ryan 127 18:46 19:43:27 0:57:27 0:55:10
6 N SERA Beneteau Oceanis 48 TBD Watkins 127 18:46 19:50:07 1:04:07 1:01:34
7 N KELLY KREW Catalina 385 WK 212 Kelly 166 18:46 19:55:08 1:09:08 1:02:46
8 N ALLIANCE Ericson 38 265 Stetler 150     DNC  
8 N SEAMOUR Catalina 380 192 Seymour 151     DNC  

RACE 4 - S Fleet - 06/06/2018 at 18:00:00

Start: S Fleet, Finishes: Finish time, Time: 18:27, Distance: 7.41, Course: 15
RankFleetBoatClassSailNoHelmNameRatingStartFinishElapsedCorrected
1 S TEMPTRESS SR 33 OB 50484 King 69 18:27 19:49:25 1:22:25 1:26:33
2 S RUCKUS J 105 239 Seif 90 18:27 19:53:39 1:26:39 1:28:00
3 S ARROW J 35 32864 Schwenzfeier 72 18:27 19:51:15 1:24:15 1:28:03
4 S DIFFERENT DRUMMER Azzura 310 1000 Gaag 66 18:27 19:50:44 1:23:44 1:28:21
5 S SKIMMER J 105 313 Martschink/Hagood 90 18:27 19:54:00 1:27:00 1:28:22
6 S RUMFRONT J 105 51306 Martschink/McKenzie 90 18:27 19:54:42 1:27:42 1:29:04
7 S CHEERS Santana 30/30 83472 Mackin 120 18:27 19:59:22 1:32:22 1:29:37
8 S RELOAD X-Treme 26 60848 Popov 90 18:27 19:59:40 1:32:40 1:34:07
9 S EASTERLY e 33 16 Cramer/Barnes 102 18:27 20:07:16 1:40:16 1:39:58
10 S JOY RIDE J 105 97 Scribner 90     DNC  

RACE 4 - V Fleet - 06/06/2018 at 18:00:00

Start: V Fleet, Finishes: Finish time, Time: 18:33, Distance: 5.5, Course: 9
RankFleetBoatClassSailNoHelmNameRatingPlace
1 V SENDIT VX1 USA160 Wiggens   RET
1 V LIME VX1 151 Fairchild   DNF

Scoring codes used

CodeDescriptionPoints
DNC Did not come to the starting area Varies
DNF Started but did not finish 3
RET Retired 3


http://www.charlestonoceanracing.com/

Sailwave Scoring Software 2.19.8
www.sailwave.com